Time;durP1;ratioP1;P1;durP2;ratioP2;P2;SDS_P1;SDS_P2;PMS_P1;PMS_P2;Temp;Humidity;BMP_temperature;BMP_pressure;BME280_temperature;BME280_humidity;BME280_pressure;Samples;Min_cycle;Max_cycle;Signal;HPM_P1;HPM_P2
2022/02/03 00:00:24;;;;;;;19.27;9.48;;;5.70;99.90;;;;;;5093425;28;20156;-70
2022/02/03 00:03:03;;;;;;;18.98;9.75;;;5.70;99.90;;;;;;5110540;28;20188;-70
2022/02/03 00:05:52;;;;;;;17.52;8.55;;;5.70;99.90;;;;;;5096551;28;20031;-71
2022/02/03 00:24:41;;;;;;;17.50;8.98;;;5.60;99.90;;;;;;5109717;28;20034;-69
2022/02/03 00:27:16;;;;;;;21.42;9.50;;;5.60;99.90;;;;;;5104725;28;20357;-71
2022/02/03 00:29:58;;;;;;;18.73;9.93;;;5.60;99.90;;;;;;5090616;28;20494;-71
2022/02/03 00:48:58;;;;;;;21.00;10.50;;;5.70;99.90;;;;;;5099466;28;20051;-71
2022/02/03 00:51:22;;;;;;;22.75;10.75;;;5.70;99.90;;;;;;5108481;28;20352;-71
2022/02/03 00:53:48;;;;;;;19.42;11.27;;;5.70;99.90;;;;;;5101154;28;20024;-71
2022/02/03 00:56:17;;;;;;;21.20;10.95;;;5.70;99.90;;;;;;5089230;28;20024;-70
2022/02/03 00:58:55;;;;;;;19.05;11.32;;;5.70;99.90;;;;;;5093057;28;20034;-71
2022/02/03 01:01:27;;;;;;;20.92;10.82;;;5.70;99.90;;;;;;5106372;28;20016;-71
2022/02/03 01:03:55;;;;;;;23.60;11.38;;;5.70;99.90;;;;;;5100143;28;20024;-71
2022/02/03 01:06:23;;;;;;;26.05;12.60;;;5.70;99.90;;;;;;5103411;28;20023;-70
2022/02/03 01:08:52;;;;;;;20.63;11.65;;;5.70;99.90;;;;;;5103910;28;20024;-70
2022/02/03 01:11:24;;;;;;;19.85;10.90;;;5.70;99.90;;;;;;5088696;28;20119;-70
2022/02/03 01:14:03;;;;;;;23.95;11.23;;;5.70;99.90;;;;;;5084364;28;20442;-70
2022/02/03 01:19:24;;;;;;;23.00;12.45;;;5.70;99.90;;;;;;5091635;28;20028;-70
2022/02/03 01:36:57;;;;;;;24.35;12.90;;;5.80;99.90;;;;;;5089920;28;20077;-70
2022/02/03 01:44:16;;;;;;;28.65;13.40;;;5.80;99.90;;;;;;5100064;28;20047;-71
2022/02/03 01:46:53;;;;;;;27.58;12.60;;;5.80;99.90;;;;;;5106529;28;20028;-70
2022/02/03 01:49:39;;;;;;;23.50;13.45;;;5.80;99.90;;;;;;5097746;28;20021;-70
2022/02/03 01:52:10;;;;;;;28.83;12.10;;;5.80;99.90;;;;;;5091020;28;20099;-71
2022/02/03 01:54:37;;;;;;;24.83;11.95;;;5.80;99.90;;;;;;5076136;28;20051;-71
2022/02/03 01:57:12;;;;;;;27.33;12.55;;;5.80;99.90;;;;;;5088606;28;20028;-70
2022/02/03 01:59:40;;;;;;;24.10;12.52;;;5.80;99.90;;;;;;5084400;28;20065;-70
2022/02/03 02:02:08;;;;;;;23.40;11.48;;;5.80;99.90;;;;;;5076315;28;20515;-71
2022/02/03 02:05:15;;;;;;;22.88;12.65;;;5.80;99.90;;;;;;5089420;28;20137;-70
2022/02/03 02:08:00;;;;;;;24.05;11.73;;;5.80;99.90;;;;;;5074757;28;20031;-71
2022/02/03 02:11:12;;;;;;;23.40;11.75;;;5.80;99.90;;;;;;5093627;28;20020;-70
2022/02/03 02:39:52;;;;;;;21.60;10.48;;;5.80;99.90;;;;;;5088480;28;20039;-69
2022/02/03 02:42:35;;;;;;;23.88;10.88;;;5.80;99.90;;;;;;5078224;28;20146;-70
2022/02/03 02:45:12;;;;;;;20.70;10.07;;;5.80;99.90;;;;;;5104144;28;20035;-71
2022/02/03 02:48:07;;;;;;;23.63;10.90;;;5.80;99.90;;;;;;5092901;28;20008;-70
2022/02/03 02:50:52;;;;;;;21.83;11.43;;;5.80;99.90;;;;;;5073868;28;20523;-70
2022/02/03 02:56:41;;;;;;;21.85;11.80;;;5.80;99.90;;;;;;5074690;28;20491;-70
2022/02/03 03:32:30;;;;;;;22.75;10.77;;;5.90;99.90;;;;;;5112380;28;20031;-70
2022/02/03 03:36:55;;;;;;;22.63;11.43;;;5.90;99.90;;;;;;5095212;28;20454;-69
2022/02/03 03:39:29;;;;;;;19.17;10.82;;;5.90;99.90;;;;;;5098972;28;20058;-70
2022/02/03 03:42:00;;;;;;;24.42;12.25;;;5.90;99.90;;;;;;5076117;28;20040;-70
2022/02/03 03:44:29;;;;;;;25.38;11.93;;;5.90;99.90;;;;;;5099943;28;20202;-70
2022/02/03 03:47:01;;;;;;;21.90;10.95;;;5.90;99.90;;;;;;5099303;28;20573;-70
2022/02/03 03:49:38;;;;;;;24.97;11.83;;;5.90;99.90;;;;;;5099893;28;20015;-71
2022/02/03 03:52:10;;;;;;;21.08;10.93;;;5.90;99.90;;;;;;5100993;28;20113;-70
2022/02/03 03:54:46;;;;;;;19.95;10.32;;;5.90;99.90;;;;;;5088034;28;20030;-70
2022/02/03 05:07:59;;;;;;;29.73;12.52;;;6.20;99.90;;;;;;5094871;28;20020;-71
2022/02/03 05:26:13;;;;;;;34.38;14.05;;;6.40;99.90;;;;;;5089540;28;20082;-70
2022/02/03 05:42:02;;;;;;;41.03;17.20;;;6.50;99.90;;;;;;5089681;28;20307;-70
2022/02/03 05:44:20;;;;;;;35.45;14.32;;;6.50;99.90;;;;;;5089452;28;20035;-68
2022/02/03 05:49:56;;;;;;;33.67;13.63;;;6.60;99.90;;;;;;5088983;28;20067;-69
2022/02/03 06:14:19;;;;;;;36.28;16.63;;;6.70;99.90;;;;;;5079511;28;20069;-71
2022/02/03 06:27:38;;;;;;;38.72;17.42;;;6.70;99.90;;;;;;5071317;28;20031;-70
2022/02/03 06:30:06;;;;;;;32.10;16.00;;;6.70;99.90;;;;;;5081230;28;20529;-68
2022/02/03 06:32:31;;;;;;;34.88;16.45;;;6.80;99.90;;;;;;5090092;28;20028;-67
2022/02/03 06:34:57;;;;;;;33.63;16.55;;;6.80;99.90;;;;;;5089737;28;20040;-69
2022/02/03 06:37:23;;;;;;;35.95;17.40;;;6.80;99.90;;;;;;5084889;28;20032;-71
2022/02/03 06:39:49;;;;;;;34.70;16.20;;;6.80;99.90;;;;;;5083164;28;20028;-69
2022/02/03 06:42:15;;;;;;;32.03;15.38;;;6.80;99.90;;;;;;5059896;28;20028;-69
2022/02/03 06:44:52;;;;;;;33.08;15.10;;;6.80;99.90;;;;;;5081026;28;20357;-70
2022/02/03 06:47:26;;;;;;;33.63;15.82;;;6.80;99.90;;;;;;5088874;28;20825;-68
2022/02/03 06:52:29;;;;;;;28.80;14.82;;;6.80;99.90;;;;;;5090056;28;20071;-70
2022/02/03 06:55:12;;;;;;;29.90;15.32;;;6.80;99.90;;;;;;5084560;28;20024;-69
2022/02/03 06:57:45;;;;;;;30.02;15.20;;;6.80;99.90;;;;;;5084802;28;20054;-69
2022/02/03 07:00:31;;;;;;;33.10;16.52;;;6.90;99.90;;;;;;5089045;28;20036;-71
2022/02/03 07:02:59;;;;;;;34.20;16.48;;;6.80;99.90;;;;;;5088992;28;20028;-71
2022/02/03 07:05:25;;;;;;;28.02;14.82;;;6.90;99.90;;;;;;5089102;28;20016;-67
2022/02/03 07:07:52;;;;;;;33.40;15.82;;;6.90;99.90;;;;;;5088257;28;20028;-70
2022/02/03 07:10:17;;;;;;;31.63;16.08;;;6.80;99.90;;;;;;5090905;28;20024;-69
2022/02/03 07:12:43;;;;;;;29.17;15.48;;;6.80;99.90;;;;;;5064090;28;20082;-70
2022/02/03 07:15:10;;;;;;;32.15;15.75;;;6.80;99.90;;;;;;5082035;28;20039;-70
2022/02/03 07:17:37;;;;;;;26.67;14.05;;;6.80;99.90;;;;;;5090441;28;20540;-70
2022/02/03 07:20:05;;;;;;;24.33;13.10;;;6.80;99.90;;;;;;5092899;28;20668;-70
2022/02/03 07:22:32;;;;;;;23.45;13.38;;;6.80;99.90;;;;;;5092745;28;20050;-69
2022/02/03 07:24:58;;;;;;;24.02;13.13;;;6.80;99.90;;;;;;5092456;28;20061;-69
2022/02/03 07:27:25;;;;;;;22.10;12.30;;;6.80;99.90;;;;;;5090992;28;20576;-71
2022/02/03 07:29:52;;;;;;;19.80;12.00;;;6.80;99.90;;;;;;5092687;28;20104;-71
2022/02/03 07:32:21;;;;;;;18.75;11.13;;;6.80;99.90;;;;;;5092319;28;20020;-70
2022/02/03 07:34:47;;;;;;;20.27;11.05;;;6.80;99.90;;;;;;5092524;28;20016;-70
2022/02/03 07:37:12;;;;;;;15.88;10.68;;;6.80;99.90;;;;;;5091049;28;20373;-70
2022/02/03 07:39:39;;;;;;;19.52;11.50;;;6.90;99.90;;;;;;5091792;28;20039;-70
2022/02/03 07:42:05;;;;;;;18.92;11.27;;;6.80;99.90;;;;;;5091693;28;20027;-71
2022/02/03 07:44:30;;;;;;;16.00;10.23;;;6.90;99.90;;;;;;5081351;28;20028;-69
2022/02/03 07:46:56;;;;;;;16.33;10.40;;;6.90;99.90;;;;;;5088236;28;20024;-70
2022/02/03 07:49:21;;;;;;;16.35;10.25;;;6.90;99.90;;;;;;5075096;28;20028;-70
2022/02/03 07:51:47;;;;;;;16.27;10.15;;;6.90;99.90;;;;;;5091879;28;20036;-70
2022/02/03 07:54:12;;;;;;;15.50;10.30;;;6.90;99.90;;;;;;5092128;28;20032;-70
2022/02/03 07:56:38;;;;;;;15.25;10.00;;;6.90;99.90;;;;;;5091819;28;20396;-69
2022/02/03 07:59:05;;;;;;;15.55;9.60;;;7.00;99.90;;;;;;5083667;28;20070;-70
2022/02/03 08:01:31;;;;;;;14.95;9.65;;;6.90;99.90;;;;;;5090163;28;20032;-69
2022/02/03 08:03:58;;;;;;;13.55;9.05;;;7.00;99.90;;;;;;5091454;28;20024;-71
2022/02/03 08:06:29;;;;;;;15.43;8.95;;;7.00;99.90;;;;;;5092211;28;20031;-71
2022/02/03 08:09:05;;;;;;;13.57;8.73;;;7.00;99.90;;;;;;5091530;28;20028;-70
2022/02/03 08:11:36;;;;;;;12.25;8.45;;;7.00;99.90;;;;;;5091712;28;20119;-70
2022/02/03 08:14:13;;;;;;;12.48;8.77;;;7.00;99.90;;;;;;5091639;28;20024;-70
2022/02/03 08:16:44;;;;;;;13.88;9.10;;;7.00;99.90;;;;;;5091615;28;20024;-70
2022/02/03 08:19:56;;;;;;;13.15;8.75;;;7.00;99.90;;;;;;5070688;28;20028;-71
2022/02/03 08:22:03;;;;;;;12.82;8.30;;;7.00;99.90;;;;;;5072869;28;20051;-71
2022/02/03 08:24:44;;;;;;;10.45;7.93;;;7.10;99.90;;;;;;5091638;28;20472;-69
2022/02/03 08:32:29;;;;;;;9.73;6.97;;;7.20;99.90;;;;;;5091557;28;20088;-71
2022/02/03 08:37:28;;;;;;;9.73;7.10;;;7.40;99.90;;;;;;5090733;28;20036;-70
2022/02/03 08:39:57;;;;;;;11.27;7.72;;;7.40;99.90;;;;;;5081237;28;20029;-71
2022/02/03 08:42:23;;;;;;;8.57;6.43;;;7.40;99.90;;;;;;5076954;28;20522;-69
2022/02/03 08:44:49;;;;;;;10.05;6.57;;;7.40;99.90;;;;;;5090812;28;20086;-71
2022/02/03 08:47:16;;;;;;;10.95;6.97;;;7.50;99.90;;;;;;5090269;28;20020;-68
2022/02/03 08:49:46;;;;;;;9.77;6.85;;;7.50;99.90;;;;;;5091731;28;20027;-69
2022/02/03 08:52:21;;;;;;;9.13;6.70;;;7.50;99.90;;;;;;5091069;28;20110;-70
2022/02/03 08:55:02;;;;;;;10.60;7.75;;;7.60;99.90;;;;;;5080526;28;20016;-70
2022/02/03 08:58:04;;;;;;;8.73;6.55;;;7.50;99.90;;;;;;5064826;28;20116;-70
2022/02/03 09:38:54;;;;;;;7.72;5.53;;;7.70;99.90;;;;;;5087541;28;20063;-71
2022/02/03 09:52:43;;;;;;;9.55;6.18;;;7.70;99.90;;;;;;5087381;28;20089;-70
2022/02/03 09:55:36;;;;;;;11.07;6.28;;;7.80;99.90;;;;;;5071563;28;20095;-71
2022/02/03 09:58:17;;;;;;;7.03;5.40;;;7.80;99.90;;;;;;5077466;28;20085;-69
2022/02/03 10:01:07;;;;;;;6.88;5.55;;;7.80;99.90;;;;;;5071837;28;20028;-69
2022/02/03 10:03:40;;;;;;;8.85;5.43;;;7.80;99.90;;;;;;5087288;28;20036;-70
2022/02/03 10:06:13;;;;;;;9.57;6.10;;;7.90;99.90;;;;;;5088730;28;20400;-68
2022/02/03 10:08:53;;;;;;;7.45;5.40;;;7.90;99.90;;;;;;5088970;28;20054;-69
2022/02/03 10:11:20;;;;;;;8.55;5.85;;;7.90;99.90;;;;;;5090336;28;20027;-69
2022/02/03 10:13:52;;;;;;;7.45;5.18;;;7.90;99.90;;;;;;5079785;28;20024;-69
2022/02/03 10:16:28;;;;;;;7.80;5.50;;;7.90;99.90;;;;;;5075357;28;20082;-70
2022/02/03 10:19:15;;;;;;;7.78;5.20;;;8.00;99.90;;;;;;5087875;28;20024;-69
2022/02/03 10:21:46;;;;;;;6.05;5.13;;;8.00;99.90;;;;;;5071665;28;20059;-69
2022/02/03 10:24:15;;;;;;;8.23;4.50;;;8.00;99.90;;;;;;5088472;28;20107;-69
2022/02/03 10:26:51;;;;;;;5.10;4.15;;;8.00;99.90;;;;;;5087326;28;20562;-69
2022/02/03 10:29:27;;;;;;;4.97;4.18;;;8.10;99.90;;;;;;5089562;28;20028;-69
2022/02/03 10:31:53;;;;;;;6.20;4.30;;;8.10;99.90;;;;;;5089761;28;20388;-71
2022/02/03 10:34:25;;;;;;;4.85;4.00;;;8.10;99.90;;;;;;5088709;28;20024;-71
2022/02/03 10:45:42;;;;;;;4.90;3.85;;;8.20;99.90;;;;;;5094351;28;20491;-70
2022/02/03 10:51:08;;;;;;;3.88;3.42;;;8.20;99.90;;;;;;5093550;28;20391;-71
2022/02/03 10:53:46;;;;;;;4.45;3.88;;;8.30;99.90;;;;;;5079469;28;20306;-71
2022/02/03 10:57:14;;;;;;;5.35;3.53;;;8.30;99.90;;;;;;5085653;28;20107;-71
2022/02/03 11:02:14;;;;;;;4.95;3.60;;;8.40;99.90;;;;;;5091471;28;20414;-71
2022/02/03 11:07:46;;;;;;;4.38;3.50;;;8.50;99.90;;;;;;5088087;28;20031;-71
2022/02/03 11:12:43;;;;;;;3.28;2.97;;;8.60;99.90;;;;;;5092146;28;20125;-70
2022/02/03 11:15:10;;;;;;;4.03;3.05;;;8.70;99.90;;;;;;5105162;28;20023;-70
2022/02/03 11:17:37;;;;;;;8.35;4.38;;;8.70;99.90;;;;;;5109407;28;20024;-70
2022/02/03 11:20:05;;;;;;;3.60;3.00;;;8.80;99.90;;;;;;5113479;28;20027;-70
2022/02/03 11:22:44;;;;;;;3.92;2.85;;;8.90;99.90;;;;;;5109483;28;20059;-70
2022/02/03 11:28:21;;;;;;;3.63;2.70;;;9.00;99.90;;;;;;5081094;28;20082;-70
2022/02/03 11:44:37;;;;;;;2.28;2.10;;;9.00;99.90;;;;;;5112910;28;20094;-73
2022/02/03 12:20:29;;;;;;;2.00;1.90;;;9.10;99.90;;;;;;5112739;28;20156;-74
2022/02/03 12:25:45;;;;;;;1.08;1.08;;;9.10;99.90;;;;;;5111277;28;20468;-69
2022/02/03 12:28:19;;;;;;;2.75;1.52;;;9.20;99.90;;;;;;5108682;28;20016;-72
2022/02/03 12:39:07;;;;;;;1.55;1.20;;;9.20;99.90;;;;;;5110774;28;20119;-72
2022/02/03 12:41:34;;;;;;;1.77;1.40;;;9.20;99.90;;;;;;5105165;28;20070;-72
2022/02/03 12:44:04;;;;;;;2.97;1.42;;;9.30;99.90;;;;;;5109765;28;20149;-70
2022/02/03 12:46:30;;;;;;;1.27;1.17;;;9.30;99.90;;;;;;5110484;28;20030;-70
2022/02/03 12:48:57;;;;;;;1.30;1.20;;;9.30;99.90;;;;;;5110510;27;20095;-71
2022/02/03 12:51:24;;;;;;;1.35;1.17;;;9.30;99.90;;;;;;5111632;28;20114;-71
2022/02/03 12:53:50;;;;;;;2.97;2.78;;;9.30;99.90;;;;;;5111384;28;20020;-71
2022/02/03 12:56:19;;;;;;;2.20;2.00;;;9.30;99.90;;;;;;5109688;28;20030;-70
2022/02/03 12:58:52;;;;;;;2.70;2.20;;;9.40;99.90;;;;;;5108838;28;20035;-71
2022/02/03 13:01:28;;;;;;;1.15;1.13;;;9.40;99.90;;;;;;5110732;28;20020;-71
2022/02/03 13:03:54;;;;;;;1.63;1.08;;;9.40;99.90;;;;;;5111828;28;20030;-75
2022/02/03 13:06:23;;;;;;;1.63;1.40;;;9.40;99.90;;;;;;5111731;28;20019;-71
2022/02/03 13:08:52;;;;;;;1.70;1.20;;;9.30;99.90;;;;;;5110343;28;20027;-71
2022/02/03 13:17:13;;;;;;;1.20;1.10;;;9.30;99.90;;;;;;5108023;28;20039;-73
2022/02/03 13:19:49;;;;;;;1.25;1.20;;;9.30;99.90;;;;;;5108680;27;20433;-70
2022/02/03 13:22:22;;;;;;;1.75;1.65;;;9.30;99.90;;;;;;5124193;27;20038;-71
2022/02/03 13:33:33;;;;;;;2.15;1.85;;;9.30;99.90;;;;;;5110544;28;20062;-71
2022/02/03 13:36:13;;;;;;;1.50;1.40;;;9.40;99.90;;;;;;5110691;28;20715;-72
2022/02/03 13:38:43;;;;;;;1.30;1.20;;;9.40;99.90;;;;;;5109723;28;20019;-72
2022/02/03 13:41:17;;;;;;;1.20;1.20;;;9.50;99.90;;;;;;5109627;28;20595;-71
2022/02/03 13:43:43;;;;;;;1.42;1.30;;;9.50;99.90;;;;;;5108368;28;20111;-72
2022/02/03 13:46:12;;;;;;;1.20;1.10;;;9.50;99.90;;;;;;5111124;28;20103;-72
2022/02/03 13:48:39;;;;;;;1.17;1.15;;;9.50;99.90;;;;;;5110024;28;20023;-72
2022/02/03 13:51:09;;;;;;;12.63;6.40;;;9.50;99.90;;;;;;5111059;28;20030;-73
2022/02/03 13:53:59;;;;;;;1.95;1.63;;;9.60;99.90;;;;;;5110588;28;20047;-72
2022/02/03 14:11:45;;;;;;;1.02;0.93;;;9.50;99.90;;;;;;5110196;28;20073;-72
2022/02/03 14:14:18;;;;;;;2.17;1.88;;;9.60;99.90;;;;;;5106645;28;20015;-71
2022/02/03 14:21:45;;;;;;;1.30;1.20;;;9.50;99.90;;;;;;5115088;28;20483;-72
2022/02/03 14:27:26;;;;;;;1.27;1.10;;;9.50;99.90;;;;;;5114647;28;20034;-72
2022/02/03 14:30:03;;;;;;;0.90;0.70;;;9.50;99.90;;;;;;5115096;28;20024;-71
2022/02/03 14:32:32;;;;;;;1.05;1.05;;;9.50;99.90;;;;;;5114611;28;20023;-71
2022/02/03 14:34:58;;;;;;;2.58;0.98;;;9.40;99.90;;;;;;5115686;27;20102;-72
2022/02/03 14:42:16;;;;;;;0.80;0.80;;;9.30;99.90;;;;;;5114704;28;20049;-72
2022/02/03 14:44:42;;;;;;;2.38;1.00;;;9.30;99.90;;;;;;5114842;28;20403;-71
2022/02/03 14:47:08;;;;;;;1.70;1.20;;;9.30;99.90;;;;;;5113043;28;20103;-71
2022/02/03 14:49:35;;;;;;;0.75;0.75;;;9.30;99.90;;;;;;5117511;28;20023;-72
2022/02/03 14:52:12;;;;;;;0.70;0.70;;;9.30;99.90;;;;;;5117030;28;20023;-70
2022/02/03 15:00:10;;;;;;;1.40;0.90;;;9.20;99.90;;;;;;5096184;28;20047;-72
2022/02/03 15:02:40;;;;;;;0.73;0.70;;;9.10;99.90;;;;;;5094205;28;20024;-72
2022/02/03 15:05:09;;;;;;;1.70;1.60;;;9.10;99.90;;;;;;5114465;28;20059;-72
2022/02/03 15:07:40;;;;;;;1.60;1.50;;;9.10;99.90;;;;;;5113301;28;20482;-71
2022/02/03 15:13:00;;;;;;;1.10;1.10;;;9.10;99.90;;;;;;5112145;28;20088;-71
2022/02/03 15:15:26;;;;;;;4.15;2.75;;;9.10;99.90;;;;;;5094253;28;20056;-71
2022/02/03 15:17:51;;;;;;;6.00;4.30;;;9.00;99.90;;;;;;5091363;28;20052;-70
2022/02/03 15:20:17;;;;;;;10.98;7.25;;;9.00;99.90;;;;;;5093935;28;20024;-72
2022/02/03 15:22:43;;;;;;;1.77;1.67;;;9.00;99.90;;;;;;5110066;28;20019;-71
2022/02/03 15:25:08;;;;;;;1.05;1.05;;;9.00;99.90;;;;;;5109001;28;20028;-71
2022/02/03 15:27:34;;;;;;;1.48;1.38;;;9.00;99.90;;;;;;5108240;28;20027;-71
2022/02/03 15:30:03;;;;;;;1.67;1.10;;;9.00;99.90;;;;;;5112399;28;20023;-72
2022/02/03 15:32:36;;;;;;;1.45;1.35;;;9.00;99.90;;;;;;5113645;28;20020;-71
2022/02/03 15:35:06;;;;;;;1.17;0.90;;;8.90;99.90;;;;;;5112245;28;20034;-69
2022/02/03 15:37:33;;;;;;;1.05;1.05;;;8.90;99.90;;;;;;5112930;28;20771;-71
2022/02/03 15:40:03;;;;;;;1.30;1.20;;;8.90;99.90;;;;;;5111846;28;20120;-71
2022/02/03 15:42:30;;;;;;;4.47;2.30;;;8.80;99.90;;;;;;5113301;28;20371;-70
2022/02/03 15:44:58;;;;;;;1.65;1.55;;;8.80;99.90;;;;;;5113547;28;20023;-72
2022/02/03 15:47:33;;;;;;;1.40;1.30;;;8.80;99.90;;;;;;5112616;28;20379;-71
2022/02/03 16:03:49;;;;;;;11.15;7.50;;;8.70;99.90;;;;;;5113356;28;20467;-71
2022/02/03 16:17:11;;;;;;;24.02;14.55;;;8.50;99.90;;;;;;5112589;28;20046;-71
2022/02/03 16:19:10;;;;;;;3.78;2.92;;;8.50;99.90;;;;;;5104092;28;20468;-70
2022/02/03 16:21:43;;;;;;;1.95;1.73;;;8.50;99.90;;;;;;5111405;28;20030;-71
2022/02/03 16:24:18;;;;;;;2.25;2.00;;;8.50;99.90;;;;;;5112766;28;20023;-71
2022/02/03 16:54:20;;;;;;;4.40;3.50;;;8.30;99.90;;;;;;5108910;28;20144;-69
2022/02/03 16:56:50;;;;;;;2.92;2.63;;;8.30;99.90;;;;;;5110721;28;20447;-69
2022/02/03 16:59:15;;;;;;;3.47;2.75;;;8.30;99.90;;;;;;5108888;28;20034;-72
2022/02/03 17:01:41;;;;;;;4.50;3.10;;;8.30;99.90;;;;;;5110569;28;20127;-73
2022/02/03 17:04:07;;;;;;;6.28;3.67;;;8.30;99.90;;;;;;5099810;28;20024;-72
2022/02/03 17:06:32;;;;;;;4.15;3.42;;;8.30;99.90;;;;;;5112255;28;20043;-71
2022/02/03 17:08:58;;;;;;;6.15;3.30;;;8.40;99.90;;;;;;5109727;27;20039;-71
2022/02/03 17:11:23;;;;;;;3.45;2.92;;;8.40;99.90;;;;;;5125824;22;20501;-71
2022/02/03 17:13:49;;;;;;;7.43;3.47;;;8.30;99.90;;;;;;5107721;28;20082;-71
2022/02/03 17:16:22;;;;;;;2.90;2.70;;;8.40;99.90;;;;;;5105067;28;20514;-70
2022/02/03 17:18:50;;;;;;;2.95;2.65;;;8.40;99.90;;;;;;5100455;28;20161;-71
2022/02/03 17:21:16;;;;;;;2.90;2.42;;;8.40;99.90;;;;;;5111516;28;20382;-71
2022/02/03 17:23:43;;;;;;;2.42;2.22;;;8.40;99.90;;;;;;5110692;28;20023;-71
2022/02/03 17:26:18;;;;;;;3.13;2.78;;;8.40;99.90;;;;;;5104467;28;20375;-71
2022/02/03 17:28:58;;;;;;;2.70;2.50;;;8.40;99.90;;;;;;5110085;28;20023;-71
2022/02/03 17:31:34;;;;;;;4.82;2.20;;;8.40;99.90;;;;;;5108441;28;20023;-71
2022/02/03 17:54:00;;;;;;;6.88;4.68;;;8.20;99.90;;;;;;5108457;27;20042;-71
2022/02/03 18:09:28;;;;;;;5.18;3.95;;;8.20;99.90;;;;;;5099960;28;20027;-70
2022/02/03 18:17:09;;;;;;;7.13;4.70;;;8.20;99.90;;;;;;5102993;28;20406;-69
2022/02/03 18:17:35;;;;;;;7.75;4.00;;;8.10;99.90;;;;;;5105228;28;20104;-70
2022/02/03 18:31:12;;;;;;;5.18;4.40;;;8.00;99.90;;;;;;5035303;28;20799;-69
2022/02/03 18:36:43;;;;;;;11.83;7.63;;;8.00;99.90;;;;;;5097945;28;20020;-71
2022/02/03 18:48:22;;;;;;;6.80;4.40;;;7.90;99.90;;;;;;5105179;28;20513;-69
2022/02/03 18:50:26;;;;;;;4.63;4.00;;;7.90;99.90;;;;;;5100982;28;20558;-70
2022/02/03 18:53:06;;;;;;;5.45;4.28;;;7.90;99.90;;;;;;5104132;28;20111;-70
2022/02/03 18:58:10;;;;;;;5.85;4.65;;;7.80;99.90;;;;;;5103068;28;20028;-70
2022/02/03 20:06:01;;;;;;;7.40;5.80;;;7.30;99.90;;;;;;5105843;28;20117;-70
2022/02/03 20:08:37;;;;;;;7.55;5.45;;;7.30;99.90;;;;;;5108488;28;20015;-69
2022/02/03 20:11:02;;;;;;;6.47;5.05;;;7.20;99.90;;;;;;5107667;28;20057;-69
2022/02/03 20:13:28;;;;;;;6.80;5.55;;;7.20;99.90;;;;;;5108923;28;20067;-70
2022/02/03 20:15:54;;;;;;;7.35;5.03;;;7.20;99.90;;;;;;5108493;28;20027;-69
2022/02/03 20:18:21;;;;;;;5.53;4.95;;;7.20;99.90;;;;;;5096032;28;20088;-69
2022/02/03 20:20:46;;;;;;;6.30;5.00;;;7.30;99.90;;;;;;5108891;28;20043;-70
2022/02/03 20:23:15;;;;;;;6.72;4.97;;;7.30;99.90;;;;;;5088813;28;20059;-69
2022/02/03 20:25:45;;;;;;;6.43;5.13;;;7.30;99.90;;;;;;5106580;27;20016;-71
2022/02/03 20:28:11;;;;;;;5.78;4.68;;;7.20;99.90;;;;;;5092300;28;20069;-69
2022/02/03 20:30:37;;;;;;;8.75;5.32;;;7.20;99.90;;;;;;5102941;28;20031;-70
2022/02/03 20:33:04;;;;;;;8.68;4.97;;;7.20;99.90;;;;;;5108761;28;20027;-69
2022/02/03 20:35:30;;;;;;;7.28;4.90;;;7.20;99.90;;;;;;5107643;28;20042;-70
2022/02/03 20:37:55;;;;;;;5.45;4.43;;;7.20;99.90;;;;;;5107331;28;20110;-70
2022/02/03 20:40:21;;;;;;;5.93;4.63;;;7.20;99.90;;;;;;5108614;28;20123;-70
2022/02/03 20:42:47;;;;;;;7.68;4.68;;;7.20;99.90;;;;;;5107260;28;20521;-69
2022/02/03 20:45:13;;;;;;;7.90;5.80;;;7.20;99.90;;;;;;5107306;28;20114;-68
2022/02/03 20:47:39;;;;;;;8.25;5.80;;;7.20;99.90;;;;;;5103910;28;20479;-68
2022/02/03 20:50:13;;;;;;;8.25;6.22;;;7.20;99.90;;;;;;5107412;28;20411;-67
2022/02/03 20:52:39;;;;;;;6.40;5.00;;;7.20;99.90;;;;;;5099769;28;20041;-69
2022/02/03 20:55:05;;;;;;;7.18;5.00;;;7.10;99.90;;;;;;5093677;28;20139;-70
2022/02/03 20:57:31;;;;;;;10.15;5.90;;;7.20;99.90;;;;;;5105473;28;20027;-69
2022/02/03 21:02:55;;;;;;;11.13;8.50;;;7.20;99.90;;;;;;5105900;28;20158;-69
2022/02/03 21:05:21;;;;;;;6.47;5.28;;;7.20;99.90;;;;;;5108822;28;20019;-69
2022/02/03 21:07:49;;;;;;;9.25;6.32;;;7.20;99.90;;;;;;5110859;28;20494;-68
2022/02/03 21:10:19;;;;;;;11.35;7.93;;;7.10;99.90;;;;;;5110745;28;20059;-68
2022/02/03 21:12:47;;;;;;;8.75;6.60;;;7.20;99.90;;;;;;5109374;28;20132;-70
2022/02/03 21:15:20;;;;;;;8.80;6.70;;;7.10;99.90;;;;;;5109235;28;20031;-69
2022/02/03 21:17:46;;;;;;;10.73;7.47;;;7.10;99.90;;;;;;5109645;28;20636;-69
2022/02/03 21:20:16;;;;;;;12.95;8.68;;;7.10;99.90;;;;;;5110462;28;20039;-69
2022/02/03 21:22:42;;;;;;;10.45;6.78;;;7.10;99.90;;;;;;5110911;28;20027;-69
2022/02/03 21:25:21;;;;;;;9.32;7.13;;;7.10;99.90;;;;;;5110725;28;20459;-68
2022/02/03 21:27:47;;;;;;;9.05;7.00;;;7.10;99.90;;;;;;5099030;28;20094;-69
2022/02/03 21:30:15;;;;;;;9.60;6.57;;;7.10;99.90;;;;;;5109942;28;20054;-69
2022/02/03 21:32:41;;;;;;;10.68;6.63;;;7.10;99.90;;;;;;5100975;28;20024;-68
2022/02/03 21:35:09;;;;;;;12.23;6.72;;;7.10;99.90;;;;;;5102235;28;20115;-68
2022/02/03 21:37:35;;;;;;;5.88;4.68;;;7.10;99.90;;;;;;5091363;28;20031;-68
2022/02/03 21:40:02;;;;;;;6.07;4.85;;;7.10;99.90;;;;;;5107040;28;20022;-69
2022/02/03 21:42:27;;;;;;;5.88;4.60;;;7.10;99.90;;;;;;5103927;28;20038;-68
2022/02/03 21:44:53;;;;;;;5.68;4.65;;;7.00;99.90;;;;;;5081891;28;20118;-68
2022/02/03 21:47:19;;;;;;;6.55;4.65;;;7.00;99.90;;;;;;5109327;28;20039;-69
2022/02/03 21:49:45;;;;;;;9.00;5.35;;;7.00;99.90;;;;;;5110802;28;20532;-68
2022/02/03 21:52:18;;;;;;;6.68;5.18;;;7.00;99.90;;;;;;5110513;28;20028;-68
2022/02/03 21:54:44;;;;;;;7.07;5.10;;;7.00;99.90;;;;;;5109885;28;20083;-68
2022/02/03 21:57:10;;;;;;;7.07;5.28;;;7.00;99.90;;;;;;5103897;28;20031;-68
2022/02/03 21:59:36;;;;;;;7.65;5.25;;;7.00;99.90;;;;;;5093533;28;20023;-67
2022/02/03 22:02:02;;;;;;;8.25;5.00;;;7.00;99.90;;;;;;5110370;28;20027;-69
2022/02/03 22:04:28;;;;;;;8.45;5.00;;;7.00;99.90;;;;;;5110381;28;20016;-67
2022/02/03 22:06:53;;;;;;;9.98;4.68;;;7.00;99.90;;;;;;5109939;28;20360;-71
2022/02/03 22:09:19;;;;;;;6.00;4.55;;;7.00;99.90;;;;;;5108687;28;20446;-68
2022/02/03 22:11:44;;;;;;;5.93;4.43;;;7.00;99.90;;;;;;5108590;28;20027;-71
2022/02/03 22:14:10;;;;;;;7.55;5.03;;;7.00;99.90;;;;;;5109650;28;20536;-69
2022/02/03 22:16:36;;;;;;;5.53;4.43;;;7.00;99.90;;;;;;5106039;28;20016;-70
2022/02/03 22:19:02;;;;;;;8.10;4.65;;;7.00;99.90;;;;;;5090055;28;20024;-67
2022/02/03 22:21:41;;;;;;;7.00;4.57;;;7.00;99.90;;;;;;5091040;28;20380;-67
2022/02/03 22:24:22;;;;;;;6.40;4.82;;;7.00;99.90;;;;;;5109304;28;20084;-69
2022/02/03 22:43:01;;;;;;;8.65;4.50;;;7.00;99.90;;;;;;5112799;28;20032;-70
2022/02/03 22:45:45;;;;;;;6.97;4.40;;;7.00;99.90;;;;;;5100631;28;20035;-67
2022/02/03 22:50:48;;;;;;;7.32;5.13;;;7.00;99.90;;;;;;5109852;28;20077;-68
2022/02/03 22:53:14;;;;;;;5.30;4.53;;;7.00;99.90;;;;;;5113546;28;20024;-68
2022/02/03 22:55:40;;;;;;;7.03;5.20;;;7.00;99.90;;;;;;5112399;28;20031;-68
2022/02/03 22:58:31;;;;;;;6.95;5.22;;;7.00;99.90;;;;;;5086819;28;20511;-67
2022/02/03 23:01:00;;;;;;;6.65;4.85;;;7.00;99.90;;;;;;5106930;28;20028;-67
2022/02/03 23:03:27;;;;;;;8.10;6.07;;;7.00;99.90;;;;;;5096061;28;20039;-68
2022/02/03 23:05:53;;;;;;;7.43;5.03;;;7.00;99.90;;;;;;5112878;28;20039;-70
2022/02/03 23:08:33;;;;;;;7.32;5.90;;;7.00;99.90;;;;;;5112068;28;20076;-70
2022/02/03 23:23:51;;;;;;;8.07;5.45;;;6.90;99.90;;;;;;5107998;28;20043;-69
2022/02/03 23:26:20;;;;;;;6.50;5.32;;;6.90;99.90;;;;;;5099793;28;20031;-70
2022/02/03 23:28:46;;;;;;;8.98;6.10;;;6.90;99.90;;;;;;5092574;28;20024;-70
2022/02/03 23:31:11;;;;;;;8.38;6.55;;;6.90;99.90;;;;;;5105180;28;20042;-69
2022/02/03 23:33:37;;;;;;;8.55;6.32;;;7.00;99.90;;;;;;5108988;28;20024;-69
2022/02/03 23:36:03;;;;;;;8.32;6.07;;;7.00;99.90;;;;;;5111975;28;20158;-69
2022/02/03 23:44:21;;;;;;;7.82;5.63;;;7.00;99.90;;;;;;5098145;28;20179;-69
